Time;durP1;ratioP1;P1;durP2;ratioP2;P2;SDS_P1;SDS_P2;PMS_P1;PMS_P2;Temp;Humidity;BMP_temperature;BMP_pressure;BME280_temperature;BME280_humidity;BME280_pressure;Samples;Min_cycle;Max_cycle;Signal;HPM_P1;HPM_P2
2022/07/01 00:00:22;;;;;;;20.48;15.98;;;;;;;24.24;92.92;100336.88;5043099;58;1141214;-76
2022/07/01 00:05:30;;;;;;;18.77;16.00;;;;;;;24.18;93.05;100330.41;5043189;58;1141124;-78
2022/07/01 00:10:37;;;;;;;17.82;15.83;;;;;;;24.11;92.67;100326.08;5037759;58;1141143;-77
2022/07/01 00:15:43;;;;;;;21.23;17.15;;;;;;;23.95;92.56;100324.66;5043101;58;1141132;-78
2022/07/01 00:20:50;;;;;;;23.35;17.75;;;;;;;23.74;92.54;100312.73;4998881;58;1141065;-76
2022/07/01 00:25:56;;;;;;;18.77;16.82;;;;;;;23.76;93.76;100318.77;5042958;58;1141099;-78
2022/07/01 00:31:02;;;;;;;17.27;15.48;;;;;;;23.78;93.31;100318.87;5042978;58;1141012;-77
2022/07/01 00:36:07;;;;;;;17.35;15.32;;;;;;;23.73;92.80;100326.76;5042945;58;1141309;-78
2022/07/01 00:41:13;;;;;;;20.88;18.77;;;;;;;23.54;92.58;100324.06;5042994;58;1141316;-78
2022/07/01 00:46:20;;;;;;;19.07;17.07;;;;;;;23.52;93.97;100330.21;5042972;58;1141122;-78
2022/07/01 00:51:26;;;;;;;20.05;16.73;;;;;;;23.65;94.30;100320.75;5042978;58;1141131;-77
2022/07/01 00:56:32;;;;;;;19.37;17.42;;;;;;;23.72;94.01;100316.16;4998528;58;1141364;-78
2022/07/01 01:01:38;;;;;;;20.10;16.65;;;;;;;23.61;93.14;100303.30;5042991;58;1141106;-77
2022/07/01 01:06:44;;;;;;;22.55;16.67;;;;;;;23.50;93.59;100310.97;5042973;58;1139065;-78
2022/07/01 01:11:50;;;;;;;18.55;15.78;;;;;;;23.58;94.28;100314.52;5042929;58;1138962;-76
2022/07/01 01:16:56;;;;;;;23.30;17.50;;;;;;;23.65;94.02;100316.70;5062297;58;21165;-76
2022/07/01 01:22:02;;;;;;;18.80;16.23;;;;;;;23.69;94.11;100316.58;5043128;58;1139420;-78
2022/07/01 01:27:09;;;;;;;19.37;16.77;;;;;;;23.71;94.10;100326.13;5036274;58;1143239;-78
2022/07/01 01:32:14;;;;;;;23.30;17.17;;;;;;;23.71;93.71;100327.48;5042983;58;1143158;-78
2022/07/01 01:37:21;;;;;;;19.82;17.48;;;;;;;23.59;93.19;100316.17;5042939;58;1143160;-78
2022/07/01 01:42:27;;;;;;;20.32;18.07;;;;;;;23.54;94.15;100317.31;5045153;58;1143133;-78
2022/07/01 01:47:32;;;;;;;25.05;17.40;;;;;;;23.45;94.08;100302.66;5056544;58;1143184;-77
2022/07/01 01:52:38;;;;;;;26.77;18.45;;;;;;;23.36;94.95;100312.01;4962073;59;1142851;-77
2022/07/01 01:57:44;;;;;;;20.97;17.05;;;;;;;23.32;95.60;100313.97;4902702;60;1143293;-76
2022/07/01 02:02:50;;;;;;;26.15;17.92;;;;;;;23.24;95.71;100307.41;4902999;59;1143120;-77
2022/07/01 02:07:56;;;;;;;26.97;17.42;;;;;;;23.27;96.11;100304.30;4917384;59;1143464;-78
2022/07/01 02:13:02;;;;;;;20.92;18.60;;;;;;;23.25;96.57;100304.51;4911728;59;1143180;-78
2022/07/01 02:18:08;;;;;;;23.87;17.55;;;;;;;23.32;97.04;100295.08;4902676;59;1143326;-77
2022/07/01 02:23:14;;;;;;;17.48;15.68;;;;;;;23.41;96.62;100305.45;4902684;59;1143200;-77
2022/07/01 02:28:20;;;;;;;23.22;17.92;;;;;;;23.39;95.88;100303.98;4893886;60;1143523;-77
2022/07/01 02:33:27;;;;;;;19.27;17.25;;;;;;;23.38;96.03;100309.08;4919841;59;1143383;-78
2022/07/01 02:38:33;;;;;;;23.62;18.52;;;;;;;23.40;96.54;100297.04;4944740;59;1143165;-77
2022/07/01 02:43:39;;;;;;;25.88;17.23;;;;;;;23.43;96.69;100299.84;4922426;59;1143170;-77
2022/07/01 02:48:45;;;;;;;27.15;17.00;;;;;;;23.41;96.13;100300.05;4952515;59;1143225;-78
2022/07/01 02:53:51;;;;;;;31.85;17.73;;;;;;;23.40;95.68;100307.84;4967281;58;1143230;-77
2022/07/01 02:58:56;;;;;;;30.20;18.80;;;;;;;23.22;95.30;100301.41;5013628;58;1143446;-77
2022/07/01 03:04:03;;;;;;;30.15;20.72;;;;;;;23.12;95.68;100303.98;4973094;59;1143584;-79
2022/07/01 03:09:09;;;;;;;32.63;18.95;;;;;;;23.04;96.26;100315.50;5073122;57;1143168;-78
2022/07/01 03:14:15;;;;;;;26.52;19.32;;;;;;;23.02;96.37;100309.47;5027645;57;1143113;-76
2022/07/01 03:19:22;;;;;;;27.40;19.60;;;;;;;23.05;97.36;100319.86;5077695;57;1143175;-78
2022/07/01 03:24:28;;;;;;;28.67;18.67;;;;;;;23.07;97.66;100328.55;5067858;57;1143333;-77
2022/07/01 03:29:34;;;;;;;34.78;18.55;;;;;;;22.99;97.01;100327.41;5036972;57;1143175;-76
2022/07/01 03:34:45;;;;;;;25.65;18.57;;;;;;;22.94;97.07;100324.48;5047756;57;1142502;-79
2022/07/01 03:39:53;;;;;;;33.20;17.93;;;;;;;22.89;97.54;100331.86;5076684;57;1143427;-79
2022/07/01 03:44:59;;;;;;;27.00;17.90;;;;;;;22.88;97.89;100332.06;5052238;57;1143179;-78
2022/07/01 03:50:05;;;;;;;34.38;17.73;;;;;;;22.91;97.76;100322.22;5095353;57;1143118;-79
2022/07/01 03:55:13;;;;;;;34.40;20.17;;;;;;;22.92;98.19;100330.59;5108842;57;1143309;-77
2022/07/01 04:00:20;;;;;;;32.05;19.25;;;;;;;22.85;98.39;100336.50;5017830;58;1143578;-79
2022/07/01 04:05:26;;;;;;;32.88;19.90;;;;;;;22.92;98.78;100341.38;4984120;58;1143076;-77
2022/07/01 04:10:34;;;;;;;32.28;19.52;;;;;;;23.00;99.09;100347.44;5029677;57;1143527;-80
2022/07/01 04:15:39;;;;;;;25.15;19.82;;;;;;;23.02;99.09;100352.12;5089930;57;1143072;-78
2022/07/01 04:22:32;;;;;;;35.23;19.40;;;;;;;23.09;99.45;100350.25;5033270;57;1143379;-77
2022/07/01 04:25:53;;;;;;;24.90;18.87;;;;;;;23.11;99.69;100349.53;5026288;58;1143143;-78
2022/07/01 04:30:59;;;;;;;27.05;18.45;;;;;;;23.15;99.58;100356.70;4984797;58;1141126;-79
2022/07/01 04:36:05;;;;;;;27.02;17.87;;;;;;;23.11;99.51;100348.70;4988938;58;1141320;-66
2022/07/01 04:46:34;;;;;;;29.77;19.32;;;;;;;23.15;100.00;100355.36;4981441;59;1143507;-65
2022/07/01 04:51:40;;;;;;;32.13;16.67;;;;;;;23.15;100.00;100350.80;4980497;59;1143373;-66
2022/07/01 04:56:46;;;;;;;26.87;15.53;;;;;;;23.20;100.00;100351.53;5030950;58;1143228;-66
2022/07/01 05:01:52;;;;;;;59.25;15.45;;;;;;;23.28;100.00;100353.19;4979105;58;1143385;-64
2022/07/01 05:06:58;;;;;;;24.32;14.75;;;;;;;23.38;100.00;100357.66;4944089;59;1143425;-70
2022/07/01 05:12:05;;;;;;;36.38;13.36;;;;;;;23.50;100.00;100358.21;4989366;59;1143195;-69
2022/07/01 05:17:10;;;;;;;22.62;13.03;;;;;;;23.61;100.00;100355.44;4968571;59;1143208;-69
2022/07/01 05:22:16;;;;;;;32.88;12.93;;;;;;;23.65;98.76;100354.50;5059042;58;1143320;-67
2022/07/01 05:27:24;;;;;;;21.62;13.28;;;;;;;23.64;98.19;100351.49;5065092;58;1141168;-66
2022/07/01 05:32:30;;;;;;;16.27;9.80;;;;;;;23.63;98.60;100332.28;5059745;58;1141102;-78
2022/07/01 05:37:35;;;;;;;25.23;11.28;;;;;;;23.69;98.72;100327.38;5055144;58;1139113;-79
2022/07/01 05:42:41;;;;;;;23.83;11.65;;;;;;;23.79;98.33;100328.63;4984226;59;1139250;-77
2022/07/01 05:47:47;;;;;;;21.12;11.60;;;;;;;24.00;98.83;100330.24;5052022;58;1139279;-77
2022/07/01 05:52:53;;;;;;;15.60;9.28;;;;;;;24.23;98.38;100323.55;5012875;58;21198;-81
2022/07/01 05:58:01;;;;;;;17.45;10.70;;;;;;;24.48;97.35;100319.11;4981492;58;1137428;-77
2022/07/01 06:03:06;;;;;;;24.13;9.80;;;;;;;24.70;96.35;100327.77;4981385;58;1143114;-79
2022/07/01 06:08:12;;;;;;;25.23;9.90;;;;;;;24.86;95.07;100333.50;5023432;58;1141095;-77
2022/07/01 06:13:18;;;;;;;17.92;8.33;;;;;;;25.06;93.78;100333.92;5059241;58;1141061;-80
2022/07/01 06:18:23;;;;;;;21.37;9.50;;;;;;;25.30;93.72;100331.80;5028580;58;1141081;-76
2022/07/01 06:23:29;;;;;;;15.08;7.08;;;;;;;25.51;93.46;100334.66;5043143;58;1141102;-65
2022/07/01 06:28:35;;;;;;;15.93;6.92;;;;;;;25.70;92.35;100328.78;5034825;58;1141121;-63
2022/07/01 06:33:41;;;;;;;11.53;6.62;;;;;;;25.95;91.71;100324.70;5042436;57;1141145;-66
2022/07/01 06:38:46;;;;;;;20.17;7.10;;;;;;;26.18;91.14;100320.79;4950359;59;1141314;-67
2022/07/01 06:43:53;;;;;;;12.50;5.67;;;;;;;26.40;89.15;100315.78;5084865;57;1141210;-64
2022/07/01 06:48:59;;;;;;;14.18;5.55;;;;;;;26.54;84.56;100319.98;5163014;57;1141075;-66
2022/07/01 06:54:06;;;;;;;19.35;6.65;;;;;;;26.72;84.54;100321.31;5162354;57;1141064;-64
2022/07/01 06:59:11;;;;;;;9.43;5.58;;;;;;;26.87;83.44;100312.76;5151416;57;1141483;-68
2022/07/01 07:04:18;;;;;;;10.90;6.05;;;;;;;27.01;80.85;100314.25;5151575;57;1139069;-65
2022/07/01 07:09:23;;;;;;;6.47;5.53;;;;;;;27.20;76.35;100307.67;5096287;57;1141183;-66
2022/07/01 07:14:29;;;;;;;11.12;6.08;;;;;;;27.25;74.14;100313.77;5059311;57;1139031;-66
2022/07/01 07:19:36;;;;;;;17.62;5.40;;;;;;;27.20;73.35;100299.52;5086810;57;1141143;-64
2022/07/01 07:24:42;;;;;;;19.25;6.28;;;;;;;27.26;75.60;100291.81;5046181;58;1141296;-67
2022/07/01 07:29:48;;;;;;;17.35;6.30;;;;;;;27.41;73.58;100294.08;5122948;57;1141068;-65
2022/07/01 07:34:54;;;;;;;6.12;5.53;;;;;;;27.54;70.80;100288.95;5104159;57;1141202;-77
2022/07/01 07:40:01;;;;;;;23.73;6.47;;;;;;;27.71;73.87;100287.21;5050071;58;1139126;-78
2022/07/01 07:45:08;;;;;;;15.13;6.03;;;;;;;27.91;71.30;100286.85;5083008;57;1141289;-76
2022/07/01 07:50:14;;;;;;;9.25;5.70;;;;;;;28.06;71.81;100281.75;5076027;57;1141090;-77
2022/07/01 07:55:20;;;;;;;9.23;6.55;;;;;;;28.26;71.56;100268.59;5139308;57;1139036;-77
2022/07/01 08:00:28;;;;;;;16.10;6.12;;;;;;;28.46;71.39;100265.98;5151356;57;1138266;-77
2022/07/01 08:05:34;;;;;;;21.05;6.40;;;;;;;28.60;71.87;100270.90;5151354;57;1141076;-76
2022/07/01 08:10:40;;;;;;;7.10;5.78;;;;;;;28.74;70.13;100272.78;5087521;57;1141082;-76
2022/07/01 08:15:45;;;;;;;11.28;6.12;;;;;;;28.88;71.06;100269.25;5064516;57;1139027;-79
2022/07/01 08:20:52;;;;;;;11.03;6.30;;;;;;;29.08;72.53;100265.53;5075623;57;1140956;-78
2022/07/01 08:25:58;;;;;;;24.15;14.33;;;;;;;29.27;70.30;100255.23;5054960;57;1141121;-78
2022/07/01 08:31:03;;;;;;;11.25;7.95;;;;;;;29.37;68.68;100251.30;5101628;57;1142477;-79
2022/07/01 08:36:13;;;;;;;12.93;6.45;;;;;;;29.46;69.02;100255.84;5059200;57;1141062;-78
2022/07/01 08:41:19;;;;;;;21.52;7.12;;;;;;;29.57;67.02;100250.81;4961605;59;1141065;-77
2022/07/01 08:46:29;;;;;;;14.05;6.87;;;;;;;29.66;67.43;100243.31;5076271;58;1141109;-78
2022/07/01 08:51:35;;;;;;;10.25;6.72;;;;;;;29.74;66.01;100248.89;5060398;57;1141109;-78
2022/07/01 08:56:49;;;;;;;14.83;7.12;;;;;;;29.81;66.84;100247.33;5075519;57;1141122;-78
2022/07/01 09:01:58;;;;;;;16.93;7.90;;;;;;;29.95;67.00;100249.97;5075983;58;1141045;-78
2022/07/01 09:07:07;;;;;;;9.63;7.40;;;;;;;30.15;63.96;100243.98;5037112;58;1139060;-79
2022/07/01 09:12:17;;;;;;;28.00;7.80;;;;;;;30.20;66.54;100242.16;4978937;58;1137028;-81
2022/07/01 09:17:23;;;;;;;13.93;7.72;;;;;;;30.31;65.13;100246.65;5000475;58;1138981;-80
2022/07/01 09:22:29;;;;;;;12.25;7.40;;;;;;;30.42;65.15;100248.94;5004484;58;1139272;-78
2022/07/01 09:27:34;;;;;;;10.43;7.87;;;;;;;30.55;66.69;100251.33;5001710;58;1139099;-78
2022/07/01 09:32:40;;;;;;;11.05;7.67;;;;;;;30.57;64.34;100247.77;5030038;58;1138961;-81
2022/07/01 09:37:46;;;;;;;14.58;8.10;;;;;;;30.65;65.37;100250.06;5014479;58;1138991;-79
2022/07/01 09:42:51;;;;;;;14.20;8.35;;;;;;;30.64;62.57;100237.48;4936800;58;1138982;-80
2022/07/01 09:47:57;;;;;;;18.42;8.05;;;;;;;30.56;63.99;100240.67;4927894;59;1139117;-80
2022/07/01 09:53:03;;;;;;;14.65;8.68;;;;;;;30.58;64.99;100244.50;4992947;59;1138952;-79
2022/07/01 09:58:10;;;;;;;9.33;8.30;;;;;;;30.63;64.60;100247.30;5005855;57;1139011;-82
2022/07/01 10:03:17;;;;;;;24.30;9.15;;;;;;;30.75;65.75;100249.33;5008079;58;1137350;-82
2022/07/01 10:08:55;;;;;;;21.00;13.05;;;;;;;30.96;65.95;100245.72;5035454;58;1138984;-80
2022/07/01 10:14:04;;;;;;;13.50;8.70;;;;;;;31.16;65.48;100243.73;5046634;57;1143013;-77
2022/07/01 10:19:26;;;;;;;22.37;9.03;;;;;;;31.13;63.52;100236.59;5077304;58;1141126;-80
2022/07/01 10:24:32;;;;;;;19.23;9.43;;;;;;;30.96;64.49;100222.50;5007711;58;1141091;-78
2022/07/01 10:29:39;;;;;;;24.87;13.18;;;;;;;30.94;65.58;100221.93;5039674;58;1141090;-80
2022/07/01 10:34:45;;;;;;;15.38;8.58;;;;;;;30.98;66.72;100211.31;5077879;58;1143149;-80
2022/07/01 10:40:01;;;;;;;15.08;8.48;;;;;;;31.08;67.22;100199.09;5077760;58;1141066;-85
2022/07/01 10:45:10;;;;;;;17.87;9.23;;;;;;;31.29;65.97;100197.38;5078072;58;1141120;-70
2022/07/01 10:50:17;;;;;;;15.15;8.30;;;;;;;31.45;66.32;100201.86;5077680;58;1141143;-67
2022/07/01 10:55:37;;;;;;;13.20;8.50;;;;;;;31.57;67.32;100202.47;5071974;58;1141011;-66
2022/07/01 11:00:50;;;;;;;13.58;9.08;;;;;;;31.80;67.09;100184.82;5077063;58;1141398;-69
2022/07/01 11:05:57;;;;;;;17.87;10.75;;;;;;;31.95;65.85;100176.68;5076580;58;1141103;-68
2022/07/01 11:11:05;;;;;;;15.40;9.25;;;;;;;32.10;64.64;100173.17;5046686;58;1143158;-69
2022/07/01 11:16:11;;;;;;;12.55;9.35;;;;;;;32.34;63.89;100170.27;4994118;58;1141216;-79
2022/07/01 11:21:17;;;;;;;14.73;8.95;;;;;;;32.47;63.45;100158.79;5012491;58;1141097;-78
2022/07/01 11:26:25;;;;;;;11.88;9.58;;;;;;;32.69;64.04;100146.77;5076552;58;1141104;-77
2022/07/01 11:31:34;;;;;;;13.43;8.83;;;;;;;32.88;61.09;100147.86;5076714;58;1141390;-76
2022/07/01 11:42:11;;;;;;;16.48;8.25;;;;;;;33.02;60.77;100127.02;5070340;57;1141147;-79
2022/07/01 11:47:28;;;;;;;21.25;9.33;;;;;;;33.16;59.10;100128.64;5064232;58;1141078;-79
2022/07/01 11:52:34;;;;;;;16.42;8.80;;;;;;;33.23;60.59;100122.33;5064204;58;1139278;-79
2022/07/01 11:57:40;;;;;;;21.82;9.80;;;;;;;33.38;59.46;100114.09;5067591;58;1139022;-77
2022/07/01 12:02:47;;;;;;;16.70;9.03;;;;;;;33.50;57.62;100111.03;5023244;58;1139328;-77
2022/07/01 12:07:53;;;;;;;13.55;8.68;;;;;;;33.56;58.78;100094.84;5030500;58;1139156;-78
2022/07/01 12:12:59;;;;;;;23.75;10.03;;;;;;;33.59;55.62;100087.42;5020280;58;1139029;-78
2022/07/01 12:18:08;;;;;;;14.05;8.88;;;;;;;33.66;55.91;100078.88;5039333;57;1141163;-79
2022/07/01 12:23:18;;;;;;;11.88;8.20;;;;;;;33.66;56.22;100067.35;5044397;57;1139188;-78
2022/07/01 12:28:29;;;;;;;10.38;8.45;;;;;;;33.60;56.14;100060.27;5151134;57;1139257;-76
2022/07/01 12:33:39;;;;;;;20.23;9.75;;;;;;;33.78;56.21;100058.81;5151259;57;1139009;-77
2022/07/01 12:38:45;;;;;;;9.25;8.15;;;;;;;33.98;56.33;100053.20;5104026;57;1139240;-78
2022/07/01 12:43:51;;;;;;;14.18;8.25;;;;;;;34.09;54.14;100044.34;5076315;57;1136936;-77
2022/07/01 12:48:57;;;;;;;16.05;8.10;;;;;;;34.27;54.05;100029.10;5064273;57;1139120;-76
2022/07/01 12:54:03;;;;;;;12.78;8.78;;;;;;;34.48;52.98;100031.98;5137956;57;1138969;-80
2022/07/01 12:59:09;;;;;;;23.42;8.70;;;;;;;34.45;54.09;100047.11;5121012;57;1139015;-81
2022/07/01 13:04:14;;;;;;;13.18;8.58;;;;;;;34.48;53.82;100045.71;5068548;57;1136950;-79
2022/07/01 13:09:20;;;;;;;14.68;9.50;;;;;;;34.48;53.96;100047.08;5046762;57;1137202;-79
2022/07/01 13:14:26;;;;;;;10.45;8.48;;;;;;;34.53;54.39;100056.63;5068042;58;1141327;-78
2022/07/01 13:19:34;;;;;;;22.57;9.57;;;;;;;34.54;53.26;100049.48;5063441;58;1141644;-79
2022/07/01 13:24:39;;;;;;;18.60;10.40;;;;;;;34.60;53.27;100044.77;5063535;58;1140930;-78
2022/07/01 13:29:45;;;;;;;13.07;8.93;;;;;;;34.69;53.02;100043.57;5063594;58;1143378;-81
2022/07/01 13:34:51;;;;;;;18.12;9.08;;;;;;;34.75;53.37;100029.51;5063731;58;1141204;-84
2022/07/01 13:39:57;;;;;;;23.52;12.98;;;;;;;34.75;52.73;100018.52;5070418;57;1141059;-84
2022/07/01 13:45:07;;;;;;;12.95;8.73;;;;;;;34.78;52.47;100008.91;5066125;58;1143167;-82
2022/07/01 13:50:13;;;;;;;8.43;7.20;;;;;;;34.66;50.24;100000.23;5033750;58;1141106;-76
2022/07/01 13:55:19;;;;;;;22.32;8.80;;;;;;;34.79;49.74;99988.02;5076686;58;1139127;-82
2022/07/01 14:00:25;;;;;;;8.75;7.92;;;;;;;34.97;49.29;100001.55;5075626;58;1139111;-80
2022/07/01 14:05:30;;;;;;;18.12;8.70;;;;;;;35.05;48.09;100018.77;5058523;58;1139244;-80
2022/07/01 14:10:37;;;;;;;13.08;8.70;;;;;;;34.93;49.17;100014.79;5066923;57;1141047;-82
2022/07/01 14:15:43;;;;;;;16.32;8.63;;;;;;;34.74;51.15;100013.31;5072155;57;1141250;-82
2022/07/01 14:20:49;;;;;;;14.85;6.83;;;;;;;34.03;51.65;100083.92;5127968;57;1141081;-79
2022/07/01 14:25:54;;;;;;;12.23;4.97;;;;;;;32.43;52.99;100092.52;5097348;57;1141092;-81
2022/07/01 15:22:22;;;;;;;17.15;7.25;;;;;;;25.06;84.33;100403.76;5371206;53;46240;-84
2022/07/01 15:27:27;;;;;;;14.63;6.95;;;;;;;25.19;84.37;100466.49;5086223;55;1136879;-80
2022/07/01 15:32:34;;;;;;;25.20;9.43;;;;;;;25.46;85.11;100457.17;5246641;55;1141116;-82
2022/07/01 15:37:40;;;;;;;11.30;5.85;;;;;;;25.27;82.63;100400.42;5122299;57;1141102;-79
2022/07/01 15:42:45;;;;;;;6.28;5.67;;;;;;;24.89;83.26;100410.70;5028464;57;1141109;-81
2022/07/01 15:48:06;;;;;;;31.30;9.08;;;;;;;24.73;83.75;100406.61;5129169;56;1139066;-80
2022/07/01 15:53:14;;;;;;;10.25;6.70;;;;;;;24.64;84.57;100423.27;5156243;56;1141108;-78
2022/07/01 15:58:20;;;;;;;9.30;6.35;;;;;;;24.55;85.30;100422.69;5156230;56;1141122;-78
2022/07/01 16:03:27;;;;;;;11.55;6.75;;;;;;;24.54;85.36;100490.80;5214470;56;1139100;-82
2022/07/01 16:08:41;;;;;;;11.57;7.97;;;;;;;24.68;85.68;100506.48;5235191;55;1141056;-81
2022/07/01 16:13:55;;;;;;;21.00;7.65;;;;;;;24.57;85.81;100479.27;5203030;55;1141088;-79
2022/07/01 16:19:03;;;;;;;9.80;7.00;;;;;;;24.35;86.83;100434.05;5175863;55;1141268;-83
2022/07/01 16:24:14;;;;;;;9.15;6.72;;;;;;;24.10;88.88;100400.91;5201901;55;1138898;-78
2022/07/01 16:29:21;;;;;;;8.63;6.17;;;;;;;23.95;91.27;100397.60;5212139;55;1139019;-81
2022/07/01 16:34:27;;;;;;;10.03;5.83;;;;;;;23.88;92.49;100400.81;5115439;57;1139053;-80
2022/07/01 16:39:33;;;;;;;6.90;5.67;;;;;;;23.85;93.82;100386.37;5240881;56;1141169;-80
2022/07/01 16:44:45;;;;;;;6.28;5.67;;;;;;;23.84;93.38;100366.63;5208903;56;1139026;-78
2022/07/01 16:49:53;;;;;;;10.50;6.67;;;;;;;23.70;94.64;100372.24;5184442;56;1139027;-80
2022/07/01 16:55:00;;;;;;;15.23;6.75;;;;;;;23.38;95.72;100361.19;5194495;56;1141117;-81
2022/07/01 17:14:25;;;;;;;8.00;5.12;;;;;;;23.34;97.44;100376.67;5279056;55;46664;-78
2022/07/01 17:19:31;;;;;;;9.20;6.35;;;;;;;22.94;100.00;100330.71;5177648;56;1134880;-79
2022/07/01 17:24:41;;;;;;;7.42;5.37;;;;;;;22.82;100.00;100367.91;5043879;57;1141062;-77
2022/07/01 17:29:54;;;;;;;8.55;4.85;;;;;;;22.71;100.00;100342.34;5126469;56;1141179;-78
2022/07/01 17:35:02;;;;;;;8.35;4.20;;;;;;;22.59;100.00;100349.35;4981607;59;1141083;-77
2022/07/01 17:40:10;;;;;;;5.05;4.12;;;;;;;22.50;100.00;100316.34;4990668;58;1141202;-79
2022/07/01 17:45:20;;;;;;;4.65;3.52;;;;;;;22.35;100.00;100327.26;5062823;56;1141094;-77
2022/07/01 17:50:30;;;;;;;20.45;4.80;;;;;;;22.24;100.00;100351.25;5127894;57;1141290;-78
2022/07/01 17:55:43;;;;;;;3.33;3.00;;;;;;;22.22;100.00;100368.95;5027082;58;1143131;-79
2022/07/01 18:00:49;;;;;;;4.15;3.50;;;;;;;22.14;100.00;100410.05;5007143;58;1141083;-79
2022/07/01 18:05:55;;;;;;;3.42;2.85;;;;;;;22.06;100.00;100429.36;5049343;57;1141122;-77
2022/07/01 18:11:14;;;;;;;3.35;2.72;;;;;;;22.04;100.00;100474.50;5098968;57;1141110;-75
2022/07/01 18:16:27;;;;;;;2.80;2.00;;;;;;;22.05;100.00;100535.42;5108490;57;1141263;-77
2022/07/01 18:21:34;;;;;;;2.65;2.17;;;;;;;22.07;100.00;100570.25;5110175;57;1141153;-74
2022/07/01 18:26:43;;;;;;;3.37;2.62;;;;;;;22.05;100.00;100600.07;5156207;56;1140994;-73
2022/07/01 18:31:56;;;;;;;3.17;2.98;;;;;;;22.02;100.00;100620.65;5153605;55;1141022;-76
2022/07/01 18:37:01;;;;;;;2.80;2.60;;;;;;;21.97;100.00;100627.62;5260314;55;1141030;-77
2022/07/01 18:42:07;;;;;;;23.70;4.03;;;;;;;21.89;100.00;100624.52;5209001;56;1141314;-76
2022/07/01 18:47:13;;;;;;;3.37;2.50;;;;;;;21.81;100.00;100616.56;5241397;55;1143094;-77
2022/07/01 18:52:19;;;;;;;2.98;2.20;;;;;;;21.65;100.00;100632.94;5123411;56;1141148;-76
2022/07/01 18:57:26;;;;;;;2.12;2.02;;;;;;;21.49;100.00;100642.55;5170598;56;1141093;-77
2022/07/01 19:02:31;;;;;;;2.45;2.00;;;;;;;21.32;100.00;100674.20;5258443;55;1141151;-79
2022/07/01 19:07:39;;;;;;;2.33;1.75;;;;;;;21.20;100.00;100689.13;5274081;55;1141110;-67
2022/07/01 19:12:45;;;;;;;2.37;2.20;;;;;;;21.16;100.00;100708.80;5210496;56;1139066;-68
2022/07/01 19:17:50;;;;;;;12.82;2.22;;;;;;;21.15;100.00;100733.18;5273358;55;1139123;-67
2022/07/01 19:22:57;;;;;;;5.80;4.35;;;;;;;21.14;100.00;100743.10;5323391;55;1141124;-69
2022/07/01 19:28:04;;;;;;;2.55;2.20;;;;;;;21.17;100.00;100751.32;5325414;55;1139053;-65
2022/07/01 19:33:11;;;;;;;2.60;2.00;;;;;;;21.20;100.00;100758.56;5313664;55;1139060;-64
2022/07/01 19:38:16;;;;;;;5.20;3.02;;;;;;;21.10;100.00;100765.99;5294553;55;1139151;-65
2022/07/01 19:43:23;;;;;;;3.28;2.30;;;;;;;21.04;100.00;100760.84;5264595;55;1139166;-67
2022/07/01 19:48:32;;;;;;;6.22;1.92;;;;;;;21.00;100.00;100771.63;5315618;55;1139050;-78
2022/07/01 19:53:38;;;;;;;2.50;2.30;;;;;;;20.92;100.00;100778.94;5304967;55;1139043;-78
2022/07/01 19:58:44;;;;;;;4.78;2.85;;;;;;;20.82;100.00;100783.19;5375277;54;1139008;-79
2022/07/01 20:03:51;;;;;;;4.97;2.77;;;;;;;20.79;100.00;100789.42;5359121;54;1139029;-77
2022/07/01 20:08:57;;;;;;;4.28;2.52;;;;;;;20.80;100.00;100779.84;5342692;55;1139013;-79
2022/07/01 20:14:03;;;;;;;8.90;3.47;;;;;;;20.81;100.00;100758.66;5326269;55;1139034;-80
2022/07/01 20:19:11;;;;;;;4.97;3.30;;;;;;;20.73;100.00;100766.80;5330450;55;1139082;-80
2022/07/01 20:24:17;;;;;;;4.90;3.20;;;;;;;20.71;100.00;100769.67;5320950;55;1139112;-81
2022/07/01 20:29:23;;;;;;;5.08;3.15;;;;;;;20.67;100.00;100762.13;5242821;55;1139001;-81
2022/07/01 20:34:28;;;;;;;6.67;3.37;;;;;;;20.61;100.00;100769.08;5328184;55;1137049;-80
2022/07/01 20:39:34;;;;;;;9.73;4.00;;;;;;;20.58;100.00;100776.65;5330267;55;1136904;-80
2022/07/01 20:44:40;;;;;;;4.17;3.30;;;;;;;20.50;100.00;100792.30;5330181;55;1141488;-81
2022/07/01 20:49:46;;;;;;;3.40;2.93;;;;;;;20.46;100.00;100799.06;5359047;54;1141486;-81
2022/07/01 20:54:52;;;;;;;4.58;3.20;;;;;;;20.46;100.00;100800.91;5422920;54;1141039;-80
2022/07/01 20:59:57;;;;;;;4.60;2.97;;;;;;;20.48;100.00;100826.56;5422716;54;1141038;-81
2022/07/01 21:05:03;;;;;;;6.97;3.58;;;;;;;20.46;100.00;100831.80;5422505;54;1141125;-80
2022/07/01 21:10:10;;;;;;;5.20;3.75;;;;;;;20.44;100.00;100817.70;5413751;54;1141060;-81
2022/07/01 21:15:16;;;;;;;4.02;3.66;;;;;;;20.42;100.00;100823.76;5317092;55;1141186;-80
2022/07/01 21:20:22;;;;;;;3.52;3.22;;;;;;;20.39;100.00;100808.83;5227907;56;1140707;-79
2022/07/01 21:25:29;;;;;;;3.12;2.75;;;;;;;20.37;100.00;100797.41;5222816;56;1141287;-81
2022/07/01 21:30:38;;;;;;;2.72;2.52;;;;;;;20.29;100.00;100800.12;5220007;55;1141075;-80
2022/07/01 21:35:42;;;;;;;6.47;2.83;;;;;;;20.24;100.00;100816.75;5240280;55;1141050;-79
2022/07/01 21:40:49;;;;;;;1.90;0.95;;;;;;;20.24;100.00;100842.27;5299647;55;1141247;-81
2022/07/01 21:45:57;;;;;;;0.72;0.72;;;;;;;20.08;100.00;100841.48;5296527;55;1141058;-81
2022/07/01 21:51:04;;;;;;;0.70;0.70;;;;;;;19.83;100.00;100847.43;5330326;55;1141112;-80
2022/07/01 21:56:12;;;;;;;0.70;0.70;;;;;;;19.62;100.00;100847.95;5218637;56;1141065;-79
2022/07/01 22:01:19;;;;;;;0.60;0.60;;;;;;;19.48;100.00;100851.29;5165621;56;1141124;-79
2022/07/01 22:11:31;;;;;;;1.75;0.70;;;;;;;19.48;100.00;100874.94;5142329;56;1141234;-80
2022/07/01 22:16:37;;;;;;;1.82;0.40;;;;;;;19.44;100.00;100876.77;5163678;56;1141116;-79
2022/07/01 22:21:45;;;;;;;0.35;0.35;;;;;;;19.37;100.00;100890.03;5135640;57;1141075;-80
2022/07/01 22:26:51;;;;;;;1.30;0.50;;;;;;;19.36;100.00;100907.13;5183984;56;1141186;-79
2022/07/01 22:31:59;;;;;;;0.90;0.35;;;;;;;19.27;100.00;100915.64;5193327;56;1141366;-78
2022/07/01 22:37:06;;;;;;;2.42;1.10;;;;;;;19.24;100.00;100904.44;5262127;55;1141134;-82
2022/07/01 22:42:14;;;;;;;1.20;0.30;;;;;;;19.14;100.00;100900.55;5220019;55;1141005;-79
2022/07/01 22:47:21;;;;;;;4.42;0.42;;;;;;;19.03;100.00;100904.05;5174523;56;1141379;-79
2022/07/01 22:53:02;;;;;;;0.40;0.40;;;;;;;18.91;100.00;100933.85;5212996;55;1141353;-80
2022/07/01 22:58:18;;;;;;;0.40;0.40;;;;;;;18.84;100.00;100954.75;5224151;56;1141135;-81
2022/07/01 23:03:27;;;;;;;2.75;0.40;;;;;;;18.83;100.00;100953.91;5155375;56;1141015;-79
2022/07/01 23:08:55;;;;;;;0.40;0.40;;;;;;;18.78;100.00;100961.61;5206332;56;1139086;-79
2022/07/01 23:19:36;;;;;;;;;;;;;;;18.65;100.00;100976.43;5224901;56;1139070;-81
2022/07/01 23:24:43;;;;;;;3.20;0.30;;;;;;;18.66;100.00;100974.09;5223841;56;976317;-81
2022/07/01 23:29:51;;;;;;;0.20;0.20;;;;;;;18.57;100.00;100971.36;5237614;56;1137188;-81
2022/07/01 23:34:59;;;;;;;0.50;0.50;;;;;;;18.50;100.00;100967.62;5237093;56;1139054;-79
2022/07/01 23:40:06;;;;;;;0.95;0.40;;;;;;;18.47;100.00;100959.93;5206211;56;1136936;-79
2022/07/01 23:45:12;;;;;;;2.00;0.75;;;;;;;18.46;100.00;100960.08;5151244;56;1136919;-80
2022/07/01 23:50:18;;;;;;;2.80;0.53;;;;;;;18.46;100.00;100950.70;5150954;57;1141238;-81
2022/07/01 23:55:24;;;;;;;0.83;0.30;;;;;;;18.43;100.00;100950.52;5235863;56;1141171;-80
